Time;durP1;ratioP1;P1;durP2;ratioP2;P2;SDS_P1;SDS_P2;PMS_P1;PMS_P2;Temp;Humidity;BMP_temperature;BMP_pressure;BME280_temperature;BME280_humidity;BME280_pressure;Samples;Min_cycle;Max_cycle;Signal;HPM_P1;HPM_P2
2021/05/28 00:02:00;;;;;;;9.63;6.00;;;10.40;99.90;;;;;;5057201;28;20171;-89
2021/05/28 00:04:25;;;;;;;10.30;5.82;;;10.30;99.90;;;;;;5056794;28;20525;-88
2021/05/28 00:06:51;;;;;;;8.43;5.07;;;10.30;99.90;;;;;;5040193;28;20196;-88
2021/05/28 00:09:16;;;;;;;12.35;6.18;;;10.30;99.90;;;;;;5057095;28;20171;-88
2021/05/28 00:11:42;;;;;;;5.97;5.47;;;10.30;99.90;;;;;;5039158;28;20179;-88
2021/05/28 00:14:08;;;;;;;10.80;5.50;;;10.20;99.90;;;;;;5039304;28;20198;-88
2021/05/28 00:16:34;;;;;;;6.40;5.53;;;10.10;99.90;;;;;;5041084;28;20217;-88
2021/05/28 00:19:00;;;;;;;7.72;5.32;;;10.10;99.90;;;;;;5059040;28;20167;-88
2021/05/28 00:21:26;;;;;;;8.02;5.68;;;10.00;99.90;;;;;;5059221;28;20178;-88
2021/05/28 00:23:51;;;;;;;12.27;5.05;;;10.00;99.90;;;;;;5059155;28;20169;-88
2021/05/28 00:26:17;;;;;;;13.10;6.53;;;10.00;99.90;;;;;;5056878;28;20179;-88
2021/05/28 00:28:49;;;;;;;12.90;6.65;;;10.00;99.90;;;;;;5075952;28;20179;-88
2021/05/28 00:31:18;;;;;;;12.43;6.63;;;9.90;99.90;;;;;;5056878;28;20158;-88
2021/05/28 00:33:44;;;;;;;8.82;5.72;;;9.80;99.90;;;;;;5056729;28;20163;-89
2021/05/28 00:36:09;;;;;;;11.23;6.53;;;9.80;99.90;;;;;;5057540;28;20540;-89
2021/05/28 00:38:35;;;;;;;12.45;6.75;;;9.70;99.90;;;;;;5056953;28;20187;-89
2021/05/28 00:41:01;;;;;;;8.40;7.40;;;9.70;99.90;;;;;;5056831;28;20175;-88
2021/05/28 00:43:27;;;;;;;9.68;7.50;;;9.60;99.90;;;;;;5056674;28;20168;-88
2021/05/28 00:45:53;;;;;;;8.60;6.05;;;9.60;99.90;;;;;;5039026;28;20524;-88
2021/05/28 00:48:18;;;;;;;7.32;6.63;;;9.60;99.90;;;;;;5039772;28;20186;-88
2021/05/28 00:50:44;;;;;;;6.82;6.18;;;9.50;99.90;;;;;;5056312;28;20535;-88
2021/05/28 00:53:10;;;;;;;10.95;7.82;;;9.40;99.90;;;;;;5022089;28;20263;-88
2021/05/28 00:55:36;;;;;;;10.00;6.90;;;9.40;99.90;;;;;;5056188;28;20663;-87
2021/05/28 00:58:02;;;;;;;10.25;6.60;;;9.40;99.90;;;;;;5070617;28;20192;-86
2021/05/28 01:00:28;;;;;;;14.80;7.00;;;9.40;99.90;;;;;;5058126;28;20317;-86
2021/05/28 01:02:55;;;;;;;12.65;6.65;;;9.40;99.90;;;;;;5058087;28;20305;-86
2021/05/28 01:05:21;;;;;;;13.75;8.13;;;9.50;99.90;;;;;;5075875;28;20619;-85
2021/05/28 01:07:47;;;;;;;17.48;8.43;;;9.50;99.90;;;;;;5056157;28;20261;-86
2021/05/28 01:10:14;;;;;;;16.35;7.75;;;9.50;99.90;;;;;;5057714;28;20244;-86
2021/05/28 01:12:40;;;;;;;14.82;7.82;;;9.60;99.90;;;;;;5075485;28;20163;-86
2021/05/28 01:15:07;;;;;;;14.60;9.13;;;9.60;99.90;;;;;;5057789;28;20225;-86
2021/05/28 01:17:34;;;;;;;14.48;8.57;;;9.60;99.90;;;;;;5045396;28;20524;-86
2021/05/28 01:20:00;;;;;;;15.70;8.98;;;9.60;99.90;;;;;;5037484;28;20168;-86
2021/05/28 01:22:25;;;;;;;11.70;7.75;;;9.60;99.90;;;;;;5037932;28;20175;-86
2021/05/28 01:24:51;;;;;;;8.57;6.65;;;9.60;99.90;;;;;;5037721;28;20171;-86
2021/05/28 01:27:18;;;;;;;11.18;6.40;;;9.40;99.90;;;;;;5072233;28;20519;-86
2021/05/28 01:29:45;;;;;;;8.27;6.82;;;9.30;99.90;;;;;;5075343;28;20322;-86
2021/05/28 01:32:11;;;;;;;13.70;6.45;;;9.30;99.90;;;;;;5075282;28;20219;-86
2021/05/28 01:34:37;;;;;;;13.00;7.10;;;9.30;99.90;;;;;;5056813;28;20313;-86
2021/05/28 01:37:02;;;;;;;11.02;6.60;;;9.30;99.90;;;;;;5073430;28;20178;-86
2021/05/28 01:39:29;;;;;;;9.50;7.05;;;9.30;99.90;;;;;;5075168;28;20180;-86
2021/05/28 01:41:55;;;;;;;9.80;7.38;;;9.20;99.90;;;;;;5073426;28;20693;-86
2021/05/28 01:44:20;;;;;;;21.52;10.57;;;9.20;99.90;;;;;;5056124;28;20174;-85
2021/05/28 01:46:48;;;;;;;10.93;8.85;;;9.20;99.90;;;;;;5054909;28;20174;-86
2021/05/28 01:49:14;;;;;;;15.27;9.90;;;9.30;99.90;;;;;;5061731;28;20183;-86
2021/05/28 01:51:49;;;;;;;12.23;9.32;;;9.20;99.90;;;;;;5055024;28;20155;-85
2021/05/28 01:54:15;;;;;;;21.00;12.13;;;9.10;99.90;;;;;;5037050;28;20217;-85
2021/05/28 01:56:40;;;;;;;14.43;12.05;;;9.10;99.90;;;;;;5031628;28;20175;-86
2021/05/28 01:59:10;;;;;;;13.75;11.40;;;9.20;99.90;;;;;;5074724;28;20232;-85
2021/05/28 02:01:35;;;;;;;21.20;10.65;;;9.20;99.90;;;;;;5074705;28;20201;-86
2021/05/28 02:04:02;;;;;;;15.02;10.88;;;9.30;99.90;;;;;;5040315;28;20202;-86
2021/05/28 02:06:28;;;;;;;18.05;11.00;;;9.40;99.90;;;;;;5042441;28;20187;-86
2021/05/28 02:08:54;;;;;;;12.80;11.48;;;9.40;99.90;;;;;;5036971;28;20229;-86
2021/05/28 02:11:19;;;;;;;19.63;11.15;;;9.30;99.90;;;;;;5036889;28;20182;-86
2021/05/28 02:13:45;;;;;;;17.15;10.93;;;9.30;99.90;;;;;;5036918;28;20171;-86
2021/05/28 02:16:12;;;;;;;15.57;10.10;;;9.30;99.90;;;;;;5067956;28;20206;-86
2021/05/28 02:18:37;;;;;;;13.05;10.00;;;9.30;99.90;;;;;;5074589;28;20232;-86
2021/05/28 02:21:03;;;;;;;9.95;8.50;;;9.30;99.90;;;;;;5056886;28;20167;-85
2021/05/28 02:23:29;;;;;;;16.50;6.50;;;9.20;99.90;;;;;;5073835;28;20599;-86
2021/05/28 02:25:55;;;;;;;10.18;7.13;;;9.10;99.90;;;;;;5055075;28;20587;-86
2021/05/28 02:28:20;;;;;;;12.00;6.97;;;9.00;99.90;;;;;;5074441;28;20169;-86
2021/05/28 02:30:46;;;;;;;8.88;7.13;;;8.90;99.90;;;;;;5074351;28;20177;-86
2021/05/28 02:33:11;;;;;;;10.23;7.10;;;8.80;99.90;;;;;;5074527;28;20173;-86
2021/05/28 02:35:37;;;;;;;16.08;8.45;;;8.90;99.90;;;;;;5072349;28;20225;-86
2021/05/28 02:38:03;;;;;;;11.18;9.98;;;8.90;99.90;;;;;;5056506;28;20227;-86
2021/05/28 02:40:28;;;;;;;14.30;9.57;;;8.90;99.90;;;;;;5056444;28;20167;-86
2021/05/28 02:42:55;;;;;;;20.05;11.00;;;8.90;99.90;;;;;;5036763;28;20176;-84
2021/05/28 02:45:21;;;;;;;24.90;12.75;;;8.90;99.90;;;;;;5037531;28;20643;-85
2021/05/28 02:47:47;;;;;;;16.08;10.60;;;8.90;99.90;;;;;;5054095;28;20164;-86
2021/05/28 02:50:13;;;;;;;21.20;10.50;;;8.90;99.90;;;;;;5036384;28;20194;-86
2021/05/28 02:52:39;;;;;;;14.95;10.40;;;8.90;99.90;;;;;;5036548;28;20198;-86
2021/05/28 02:55:05;;;;;;;22.23;10.95;;;9.00;99.90;;;;;;5054702;28;20203;-86
2021/05/28 02:57:31;;;;;;;13.75;9.43;;;9.00;99.90;;;;;;5053991;28;20167;-86
2021/05/28 02:59:57;;;;;;;15.90;10.55;;;9.00;99.90;;;;;;5019652;28;20171;-86
2021/05/28 03:02:22;;;;;;;21.70;10.43;;;9.00;99.90;;;;;;5053981;28;20542;-86
2021/05/28 03:04:48;;;;;;;12.85;9.45;;;8.90;99.90;;;;;;5039161;28;20216;-86
2021/05/28 03:07:14;;;;;;;15.38;9.95;;;8.90;99.90;;;;;;5072326;28;20413;-86
2021/05/28 03:09:40;;;;;;;21.77;12.80;;;8.90;99.90;;;;;;5074023;28;20209;-86
2021/05/28 03:12:06;;;;;;;29.25;13.57;;;8.90;99.90;;;;;;5060621;28;20193;-86
2021/05/28 03:14:32;;;;;;;23.48;14.23;;;8.90;99.90;;;;;;5053893;28;20203;-85
2021/05/28 03:16:57;;;;;;;24.27;13.90;;;8.90;99.90;;;;;;5039586;28;20314;-85
2021/05/28 03:19:30;;;;;;;20.38;14.00;;;8.90;99.90;;;;;;5053881;28;20182;-86
2021/05/28 03:24:41;;;;;;;13.13;10.43;;;9.00;99.90;;;;;;5053604;28;20172;-85
2021/05/28 03:27:07;;;;;;;19.55;11.45;;;9.00;99.90;;;;;;5054455;28;20163;-86
2021/05/28 03:29:32;;;;;;;15.65;11.07;;;8.90;99.90;;;;;;5073641;28;20580;-86
2021/05/28 03:31:58;;;;;;;23.90;12.65;;;9.00;99.90;;;;;;5073717;28;20166;-86
2021/05/28 03:34:25;;;;;;;32.75;16.90;;;9.00;99.90;;;;;;5075546;28;20199;-86
2021/05/28 03:36:51;;;;;;;18.13;12.75;;;9.00;99.90;;;;;;5024469;28;20261;-86
2021/05/28 03:39:16;;;;;;;22.20;11.18;;;9.00;99.90;;;;;;5040333;28;20199;-86
2021/05/28 03:41:42;;;;;;;13.05;11.35;;;8.90;99.90;;;;;;5051413;28;20179;-86
2021/05/28 03:44:08;;;;;;;16.70;10.00;;;9.00;99.90;;;;;;5077241;28;20250;-85
2021/05/28 03:46:34;;;;;;;10.05;8.57;;;9.00;99.90;;;;;;5059100;28;20198;-86
2021/05/28 03:48:59;;;;;;;13.85;8.25;;;8.90;99.90;;;;;;5041207;28;20171;-86
2021/05/28 03:51:25;;;;;;;13.15;8.77;;;8.80;99.90;;;;;;5077231;28;20210;-86
2021/05/28 03:53:50;;;;;;;14.18;9.07;;;8.90;99.90;;;;;;5059430;28;20216;-86
2021/05/28 03:56:16;;;;;;;11.40;9.55;;;8.90;99.90;;;;;;5063524;28;20559;-86
2021/05/28 03:58:43;;;;;;;12.20;9.88;;;8.90;99.90;;;;;;5057054;28;20520;-86
2021/05/28 04:01:09;;;;;;;11.43;9.80;;;8.90;99.90;;;;;;5058110;28;20232;-86
2021/05/28 04:03:36;;;;;;;12.82;10.82;;;9.00;99.90;;;;;;5056796;28;20167;-86
2021/05/28 04:06:01;;;;;;;23.20;9.38;;;9.00;99.90;;;;;;5050003;28;20672;-86
2021/05/28 04:08:27;;;;;;;15.35;8.50;;;9.00;99.90;;;;;;5077170;28;20167;-86
2021/05/28 04:10:53;;;;;;;10.77;8.15;;;9.00;99.90;;;;;;5052999;28;20582;-86
2021/05/28 04:13:19;;;;;;;14.15;8.90;;;8.90;99.90;;;;;;5042368;28;20178;-86
2021/05/28 04:15:44;;;;;;;17.92;10.40;;;9.00;99.90;;;;;;5058367;28;20693;-86
2021/05/28 04:18:10;;;;;;;23.83;10.40;;;9.10;99.90;;;;;;5042342;28;20615;-85
2021/05/28 04:20:37;;;;;;;16.63;9.88;;;9.20;99.90;;;;;;5074988;28;20175;-86
2021/05/28 04:23:03;;;;;;;13.02;9.45;;;9.30;99.90;;;;;;5076820;28;20170;-85
2021/05/28 04:25:29;;;;;;;16.10;10.43;;;9.40;99.90;;;;;;5052481;28;20270;-86
2021/05/28 04:27:54;;;;;;;16.90;10.98;;;9.60;99.90;;;;;;5056484;28;20199;-86
2021/05/28 04:30:24;;;;;;;15.18;11.35;;;9.70;99.90;;;;;;5056620;28;20163;-86
2021/05/28 04:32:54;;;;;;;14.35;11.55;;;9.80;99.90;;;;;;5039725;28;20628;-86
2021/05/28 04:35:20;;;;;;;19.70;11.90;;;9.90;99.90;;;;;;5042801;28;20206;-86
2021/05/28 04:37:46;;;;;;;23.13;10.95;;;10.10;99.90;;;;;;5076419;28;20666;-85
2021/05/28 04:40:12;;;;;;;14.02;9.88;;;10.40;99.90;;;;;;5056768;28;20174;-86
2021/05/28 04:42:38;;;;;;;14.38;9.57;;;10.60;99.90;;;;;;5057280;28;20529;-87
2021/05/28 04:45:05;;;;;;;11.90;9.65;;;10.90;99.90;;;;;;5039624;28;20254;-86
2021/05/28 04:47:32;;;;;;;13.13;9.10;;;11.20;99.90;;;;;;5076020;28;20167;-85
2021/05/28 04:49:58;;;;;;;13.32;9.40;;;11.80;99.90;;;;;;5076125;28;20170;-86
2021/05/28 04:52:24;;;;;;;10.70;7.10;;;12.50;99.90;;;;;;5074818;28;20627;-87
2021/05/28 04:54:49;;;;;;;11.88;7.50;;;13.50;99.90;;;;;;5052557;28;20206;-87
2021/05/28 04:57:15;;;;;;;9.52;7.90;;;14.60;99.90;;;;;;5056189;28;20588;-87
2021/05/28 04:59:41;;;;;;;7.30;6.60;;;15.60;99.90;;;;;;5039727;28;20182;-87
2021/05/28 05:02:07;;;;;;;8.15;6.97;;;16.30;99.90;;;;;;5056618;28;20540;-87
2021/05/28 05:04:33;;;;;;;11.15;7.07;;;16.60;99.90;;;;;;5040518;28;20180;-87
2021/05/28 05:06:59;;;;;;;8.75;7.78;;;16.70;99.90;;;;;;5041620;28;20177;-86
2021/05/28 05:09:24;;;;;;;12.75;7.78;;;16.70;99.90;;;;;;5075618;28;20263;-86
2021/05/28 05:11:51;;;;;;;13.25;8.05;;;16.70;99.90;;;;;;5060920;28;20209;-87
2021/05/28 05:14:16;;;;;;;10.30;6.70;;;17.00;99.90;;;;;;5035910;28;20532;-87
2021/05/28 05:16:42;;;;;;;12.35;8.10;;;17.50;99.90;;;;;;5037822;28;20178;-88
2021/05/28 05:19:08;;;;;;;9.15;7.57;;;18.00;99.90;;;;;;5037688;28;20174;-87
2021/05/28 05:21:33;;;;;;;8.75;7.82;;;18.50;99.90;;;;;;5055333;28;20167;-87
2021/05/28 05:23:59;;;;;;;10.50;7.10;;;19.20;99.90;;;;;;5055165;28;20216;-87
2021/05/28 05:26:25;;;;;;;12.75;7.93;;;20.00;99.90;;;;;;5054322;28;20180;-87
2021/05/28 05:28:52;;;;;;;11.07;7.38;;;20.80;99.90;;;;;;5055587;28;20173;-87
2021/05/28 05:31:17;;;;;;;9.20;7.32;;;21.30;99.90;;;;;;5055125;28;20167;-87
2021/05/28 05:33:43;;;;;;;9.32;7.47;;;21.80;99.90;;;;;;5052119;28;20186;-87
2021/05/28 05:36:08;;;;;;;8.15;7.22;;;22.30;99.90;;;;;;5073496;28;20623;-87
2021/05/28 05:38:34;;;;;;;14.13;8.00;;;22.70;99.90;;;;;;5075114;28;20519;-87
2021/05/28 05:41:00;;;;;;;16.40;7.70;;;23.20;99.90;;;;;;5049608;28;20242;-87
2021/05/28 05:43:25;;;;;;;9.27;7.28;;;23.60;99.90;;;;;;5054982;28;20183;-87
2021/05/28 05:45:51;;;;;;;15.38;7.13;;;24.10;99.90;;;;;;5055751;28;20642;-87
2021/05/28 05:48:17;;;;;;;9.75;6.40;;;24.60;99.90;;;;;;5054845;28;20692;-87
2021/05/28 05:50:42;;;;;;;20.58;7.68;;;25.30;99.90;;;;;;5036727;28;20173;-87
2021/05/28 05:53:08;;;;;;;14.77;8.00;;;25.50;99.90;;;;;;5048308;28;20175;-88
2021/05/28 05:55:34;;;;;;;13.32;7.28;;;25.60;99.90;;;;;;5062543;28;20195;-87
2021/05/28 05:57:59;;;;;;;9.35;7.50;;;25.90;99.90;;;;;;5054575;28;20627;-88
2021/05/28 06:00:25;;;;;;;13.20;7.38;;;26.40;99.90;;;;;;5054844;28;20171;-87
2021/05/28 06:02:51;;;;;;;8.38;7.50;;;26.80;99.90;;;;;;5054688;28;20186;-87
2021/05/28 06:05:18;;;;;;;12.77;7.57;;;27.00;99.90;;;;;;5055394;28;20615;-88
2021/05/28 06:07:44;;;;;;;19.83;8.50;;;27.20;99.90;;;;;;5054419;28;20653;-87
2021/05/28 06:10:11;;;;;;;12.40;7.00;;;27.80;99.90;;;;;;5036640;28;20196;-87
2021/05/28 06:12:37;;;;;;;18.90;7.55;;;29.00;99.90;;;;;;5055783;28;20173;-85
2021/05/28 06:15:04;;;;;;;12.27;6.07;;;30.00;98.30;;;;;;5072545;28;20202;-86
2021/05/28 06:17:30;;;;;;;12.63;6.03;;;31.00;96.40;;;;;;5073504;28;20524;-86
2021/05/28 06:19:56;;;;;;;12.45;5.32;;;31.90;95.70;;;;;;5056555;28;20174;-86
2021/05/28 06:22:22;;;;;;;8.75;4.82;;;32.40;94.10;;;;;;5074166;28;20170;-86
2021/05/28 06:24:52;;;;;;;13.57;6.00;;;32.30;93.20;;;;;;5045331;28;20182;-85
2021/05/28 06:27:17;;;;;;;12.27;5.90;;;32.10;93.50;;;;;;5054361;28;20250;-86
2021/05/28 06:29:43;;;;;;;14.40;5.38;;;32.20;92.80;;;;;;5036257;28;20266;-86
2021/05/28 06:32:09;;;;;;;7.85;4.75;;;32.00;91.30;;;;;;5036299;28;20225;-86
2021/05/28 06:34:35;;;;;;;8.38;4.20;;;31.70;91.80;;;;;;5043522;28;20209;-86
2021/05/28 06:37:01;;;;;;;12.60;4.18;;;31.10;91.60;;;;;;5072188;28;20257;-86
2021/05/28 06:39:27;;;;;;;11.65;4.47;;;30.60;91.10;;;;;;5073606;28;20569;-86
2021/05/28 06:41:53;;;;;;;8.10;3.22;;;30.10;92.60;;;;;;5057094;28;20175;-85
2021/05/28 06:44:24;;;;;;;6.40;3.20;;;28.80;92.40;;;;;;5058928;28;20627;-86
2021/05/28 06:46:51;;;;;;;8.50;2.97;;;27.90;93.90;;;;;;5072484;28;20155;-89
2021/05/28 06:49:18;;;;;;;11.43;3.22;;;26.60;94.40;;;;;;5056049;28;20270;-89
2021/05/28 06:51:44;;;;;;;11.43;3.20;;;25.60;95.80;;;;;;5039307;28;20543;-86
2021/05/28 06:54:10;;;;;;;12.25;3.33;;;25.70;96.90;;;;;;5069582;28;20181;-86
2021/05/28 06:56:35;;;;;;;7.28;3.38;;;26.80;96.00;;;;;;5053707;28;20523;-88
2021/05/28 06:59:01;;;;;;;10.48;3.53;;;28.00;93.80;;;;;;5055450;28;20183;-89
2021/05/28 07:01:28;;;;;;;6.38;3.53;;;28.40;93.00;;;;;;5058476;28;20224;-89
2021/05/28 07:03:53;;;;;;;7.65;3.00;;;28.70;92.80;;;;;;5042388;28;20167;-88
2021/05/28 07:06:19;;;;;;;7.05;3.28;;;28.90;93.00;;;;;;5056930;28;20646;-88
2021/05/28 07:08:45;;;;;;;7.28;2.85;;;29.20;93.00;;;;;;5064761;28;20266;-88
2021/05/28 07:11:11;;;;;;;11.25;3.15;;;28.70;92.50;;;;;;5068274;28;20287;-87
2021/05/28 07:13:37;;;;;;;5.97;3.13;;;27.70;93.30;;;;;;5077770;28;20678;-87
2021/05/28 07:16:03;;;;;;;11.93;3.50;;;27.30;93.60;;;;;;5041497;28;20305;-88
2021/05/28 07:18:28;;;;;;;10.65;3.33;;;27.40;93.70;;;;;;5059504;28;20191;-87
2021/05/28 07:20:54;;;;;;;5.97;2.58;;;27.80;94.50;;;;;;5057826;28;20170;-84
2021/05/28 07:23:22;;;;;;;8.45;3.10;;;29.20;93.50;;;;;;5057511;28;20168;-85
2021/05/28 07:25:48;;;;;;;5.63;3.28;;;28.80;92.30;;;;;;5073357;28;20183;-83
2021/05/28 07:28:13;;;;;;;7.30;2.75;;;27.70;92.90;;;;;;5059278;28;20637;-83
2021/05/28 07:30:39;;;;;;;4.03;2.97;;;27.10;94.20;;;;;;5075537;28;20257;-85
2021/05/28 07:33:05;;;;;;;5.75;2.97;;;26.20;93.90;;;;;;5077092;28;20190;-83
2021/05/28 07:35:30;;;;;;;12.80;3.72;;;24.30;96.70;;;;;;5076660;28;20202;-84
2021/05/28 07:37:56;;;;;;;10.10;3.42;;;24.80;96.60;;;;;;5077699;28;20171;-86
2021/05/28 07:40:22;;;;;;;6.35;3.05;;;24.80;96.30;;;;;;5076535;28;20262;-86
2021/05/28 07:42:48;;;;;;;5.35;2.83;;;24.80;97.30;;;;;;5059151;28;20167;-87
2021/05/28 07:45:14;;;;;;;9.40;3.30;;;26.00;97.50;;;;;;5077467;28;20406;-86
2021/05/28 07:47:40;;;;;;;7.18;2.83;;;25.70;95.70;;;;;;5077781;28;20403;-85
2021/05/28 07:50:07;;;;;;;7.85;2.95;;;24.70;96.30;;;;;;5078265;28;20228;-83
2021/05/28 07:52:33;;;;;;;6.07;3.03;;;24.50;97.10;;;;;;5060640;28;20176;-82
2021/05/28 07:54:59;;;;;;;7.80;2.88;;;25.20;97.20;;;;;;5060567;28;20195;-83
2021/05/28 07:57:25;;;;;;;5.55;2.90;;;27.30;95.90;;;;;;5058713;28;20235;-84
2021/05/28 07:59:50;;;;;;;9.32;2.90;;;29.00;93.20;;;;;;5074918;28;20170;-84
2021/05/28 08:02:18;;;;;;;10.13;2.80;;;28.80;92.10;;;;;;5076720;28;20526;-85
2021/05/28 08:04:45;;;;;;;6.18;2.45;;;27.50;92.80;;;;;;5076350;28;20175;-83
2021/05/28 08:07:11;;;;;;;7.35;2.65;;;27.60;93.60;;;;;;5076289;28;20518;-83
2021/05/28 08:09:36;;;;;;;9.15;3.30;;;30.50;91.90;;;;;;5076289;28;20167;-84
2021/05/28 08:12:02;;;;;;;5.25;2.22;;;33.30;89.70;;;;;;5066509;28;20366;-82
2021/05/28 08:14:28;;;;;;;10.80;2.70;;;35.00;85.20;;;;;;5018587;28;20195;-83
2021/05/28 08:16:54;;;;;;;5.43;2.92;;;34.60;81.20;;;;;;5036304;28;20196;-83
2021/05/28 08:19:19;;;;;;;3.17;2.08;;;35.40;78.10;;;;;;5034803;28;20171;-84
2021/05/28 08:21:45;;;;;;;6.93;2.10;;;36.80;76.40;;;;;;5052527;28;20258;-84
2021/05/28 08:24:11;;;;;;;5.70;2.10;;;34.10;76.90;;;;;;5055891;28;20536;-83
2021/05/28 08:26:37;;;;;;;7.32;2.55;;;34.30;80.20;;;;;;5036157;28;20182;-82
2021/05/28 08:29:03;;;;;;;6.38;2.47;;;35.60;78.50;;;;;;5054791;28;20187;-81
2021/05/28 08:31:29;;;;;;;4.35;1.90;;;36.50;74.80;;;;;;5061067;28;20262;-85
2021/05/28 08:33:55;;;;;;;5.63;2.40;;;33.70;76.20;;;;;;5055487;28;20253;-85
2021/05/28 08:36:21;;;;;;;2.97;1.73;;;34.40;76.00;;;;;;5026470;28;20198;-84
2021/05/28 08:38:46;;;;;;;6.43;1.85;;;33.50;74.70;;;;;;5038117;28;20240;-85
2021/05/28 08:41:14;;;;;;;4.60;2.50;;;31.70;80.80;;;;;;5056145;28;20175;-87
2021/05/28 08:43:43;;;;;;;4.35;1.80;;;33.60;77.30;;;;;;5040394;28;20179;-87
2021/05/28 08:46:11;;;;;;;4.85;1.75;;;35.00;73.40;;;;;;5072793;28;20171;-87
2021/05/28 08:48:37;;;;;;;4.13;1.77;;;36.00;74.10;;;;;;5055592;28;20245;-85
2021/05/28 08:51:03;;;;;;;6.97;2.65;;;35.50;69.60;;;;;;5038689;28;20731;-82
2021/05/28 08:53:28;;;;;;;5.20;1.75;;;33.50;71.50;;;;;;5070163;28;20552;-84
2021/05/28 08:55:54;;;;;;;2.78;1.95;;;33.60;73.40;;;;;;5035511;28;20207;-83
2021/05/28 08:58:20;;;;;;;6.13;2.22;;;33.10;74.00;;;;;;5051767;28;20647;-86
2021/05/28 09:00:46;;;;;;;6.53;1.40;;;34.90;72.30;;;;;;5052693;28;20182;-86
2021/05/28 09:03:19;;;;;;;5.22;1.83;;;34.10;71.40;;;;;;5038493;28;20203;-84
2021/05/28 09:05:46;;;;;;;5.82;1.80;;;32.20;72.90;;;;;;5061159;28;20240;-81
2021/05/28 09:08:12;;;;;;;6.45;2.17;;;32.10;76.10;;;;;;5054213;28;20661;-82
2021/05/28 09:10:42;;;;;;;8.63;2.45;;;33.70;73.60;;;;;;5055462;28;20183;-82
2021/05/28 09:13:18;;;;;;;3.78;1.65;;;34.10;71.40;;;;;;5062711;28;20167;-83
2021/05/28 09:15:46;;;;;;;4.15;1.73;;;34.60;70.60;;;;;;5063674;28;20197;-83
2021/05/28 09:18:13;;;;;;;8.02;2.30;;;35.10;71.50;;;;;;5054694;28;20179;-83
2021/05/28 09:20:39;;;;;;;4.28;1.80;;;35.70;69.40;;;;;;5036748;28;20175;-83
2021/05/28 09:23:26;;;;;;;2.33;1.67;;;37.40;66.10;;;;;;5055094;28;20765;-83
2021/05/28 09:25:57;;;;;;;3.88;2.00;;;32.60;67.90;;;;;;5036454;28;20192;-82
2021/05/28 09:28:24;;;;;;;3.80;1.77;;;31.90;74.20;;;;;;5030249;28;20229;-84
2021/05/28 09:31:01;;;;;;;3.33;1.50;;;34.30;70.60;;;;;;5036858;28;20171;-85
2021/05/28 09:33:31;;;;;;;4.63;1.58;;;30.00;76.90;;;;;;5034449;28;20653;-84
2021/05/28 09:36:09;;;;;;;3.47;1.75;;;32.10;78.30;;;;;;5035278;28;20301;-84
2021/05/28 09:38:35;;;;;;;5.05;2.03;;;35.10;71.30;;;;;;5049580;28;20178;-86
2021/05/28 09:41:01;;;;;;;12.13;2.53;;;35.90;67.80;;;;;;5053121;28;20493;-85
2021/05/28 09:43:28;;;;;;;4.03;2.20;;;35.10;71.40;;;;;;5052718;28;20209;-85
2021/05/28 09:45:54;;;;;;;4.55;2.15;;;36.10;68.80;;;;;;5038678;28;20201;-84
2021/05/28 09:48:29;;;;;;;5.53;1.63;;;37.50;65.70;;;;;;5053691;28;20179;-84
2021/05/28 09:51:03;;;;;;;3.78;1.88;;;35.90;65.80;;;;;;5053872;28;20155;-85
2021/05/28 09:53:33;;;;;;;5.20;1.85;;;34.30;66.60;;;;;;5031561;28;20204;-84
2021/05/28 09:56:20;;;;;;;4.47;2.03;;;33.10;70.90;;;;;;5057446;28;20673;-84
2021/05/28 09:59:00;;;;;;;2.03;1.70;;;33.00;69.40;;;;;;5048452;28;20191;-84
2021/05/28 10:01:26;;;;;;;2.85;1.45;;;32.00;70.60;;;;;;5053671;28;20175;-83
2021/05/28 10:04:01;;;;;;;2.60;1.60;;;29.00;74.60;;;;;;5052159;28;20681;-84
2021/05/28 10:06:28;;;;;;;6.60;2.03;;;28.00;80.70;;;;;;5041089;28;20198;-82
2021/05/28 10:08:57;;;;;;;9.05;1.60;;;29.60;76.20;;;;;;5035438;28;20278;-84
2021/05/28 10:11:24;;;;;;;5.28;2.00;;;29.50;75.50;;;;;;5034753;28;20262;-84
2021/05/28 10:13:49;;;;;;;7.22;2.35;;;30.00;76.40;;;;;;5035464;28;20669;-83
2021/05/28 10:16:16;;;;;;;7.35;1.90;;;31.10;74.00;;;;;;5062449;28;20194;-83
2021/05/28 10:18:43;;;;;;;5.47;1.98;;;30.70;74.20;;;;;;5034745;28;20198;-83
2021/05/28 10:21:09;;;;;;;3.05;1.77;;;30.30;76.90;;;;;;5035493;28;20230;-83
2021/05/28 10:23:35;;;;;;;4.35;1.77;;;28.60;78.50;;;;;;5052977;28;20221;-84
2021/05/28 10:26:01;;;;;;;4.45;1.80;;;27.50;78.70;;;;;;5045438;28;20179;-82
2021/05/28 10:28:33;;;;;;;9.65;1.98;;;27.00;79.80;;;;;;5014974;28;20190;-85
2021/05/28 10:30:59;;;;;;;5.22;2.25;;;27.10;81.20;;;;;;5047877;28;20647;-83
2021/05/28 10:33:24;;;;;;;2.40;1.73;;;28.40;79.20;;;;;;5038119;28;20179;-84
2021/05/28 10:35:56;;;;;;;2.75;1.73;;;30.30;76.00;;;;;;5070242;28;20265;-85
2021/05/28 10:38:34;;;;;;;4.60;1.58;;;31.10;75.40;;;;;;5090465;28;20159;-84
2021/05/28 10:41:05;;;;;;;3.38;1.90;;;26.90;79.00;;;;;;5082412;28;20180;-83
2021/05/28 10:43:57;;;;;;;5.75;1.92;;;27.90;81.70;;;;;;5068551;28;20474;-83
2021/05/28 10:46:23;;;;;;;6.28;2.08;;;29.20;77.20;;;;;;5068157;28;20181;-82
2021/05/28 10:48:50;;;;;;;8.95;2.55;;;26.20;82.90;;;;;;5053831;28;20243;-84
2021/05/28 10:51:22;;;;;;;2.67;1.60;;;29.00;80.20;;;;;;5047204;28;20191;-85
2021/05/28 10:53:50;;;;;;;4.80;1.98;;;30.20;76.60;;;;;;5047532;28;20179;-84
2021/05/28 10:56:18;;;;;;;4.20;1.58;;;31.20;75.70;;;;;;5067025;28;20206;-86
2021/05/28 10:58:49;;;;;;;4.95;1.77;;;31.20;74.40;;;;;;5056116;28;20187;-87
2021/05/28 11:01:36;;;;;;;4.50;1.95;;;29.40;78.20;;;;;;5035301;28;20655;-86
2021/05/28 11:04:04;;;;;;;4.07;1.73;;;30.20;76.70;;;;;;5047623;28;20179;-86
2021/05/28 11:06:53;;;;;;;6.78;1.63;;;29.60;80.00;;;;;;5065314;28;20191;-86
2021/05/28 11:09:33;;;;;;;2.70;1.63;;;30.00;76.40;;;;;;5064114;28;20171;-83
2021/05/28 11:11:59;;;;;;;6.63;1.95;;;27.80;79.40;;;;;;5053206;28;20547;-85
2021/05/28 11:14:26;;;;;;;10.95;2.90;;;26.40;83.90;;;;;;5032865;28;20245;-80
2021/05/28 11:16:52;;;;;;;5.55;2.30;;;25.90;83.00;;;;;;5054164;28;20179;-79
2021/05/28 11:19:26;;;;;;;3.30;2.30;;;27.40;83.20;;;;;;5037084;28;20658;-79
2021/05/28 11:21:56;;;;;;;4.32;2.00;;;30.80;77.70;;;;;;5071746;28;20601;-78
2021/05/28 11:24:40;;;;;;;3.10;1.70;;;33.70;75.00;;;;;;5018319;28;20325;-80
2021/05/28 11:27:25;;;;;;;5.25;1.50;;;35.00;71.50;;;;;;5051461;28;20185;-81
2021/05/28 11:30:02;;;;;;;5.50;1.60;;;35.20;70.60;;;;;;5025728;28;20185;-82
2021/05/28 11:32:45;;;;;;;2.92;1.50;;;35.50;67.30;;;;;;5051475;28;20578;-83
2021/05/28 11:35:16;;;;;;;2.17;1.35;;;34.40;67.30;;;;;;5033771;28;20199;-85
2021/05/28 11:37:56;;;;;;;1.95;1.30;;;29.20;72.50;;;;;;5054999;28;20170;-84
2021/05/28 11:40:35;;;;;;;2.75;1.42;;;27.40;76.70;;;;;;5043670;28;20180;-84
2021/05/28 11:43:12;;;;;;;3.17;1.50;;;27.70;78.50;;;;;;5051300;28;20187;-84
2021/05/28 11:45:44;;;;;;;7.03;1.70;;;25.70;79.00;;;;;;5056830;28;20158;-84
2021/05/28 11:48:15;;;;;;;4.47;1.38;;;25.70;81.60;;;;;;5053973;28;20183;-84
2021/05/28 11:50:50;;;;;;;4.57;1.55;;;26.40;84.10;;;;;;5035090;28;20175;-83
2021/05/28 11:53:16;;;;;;;2.40;1.48;;;27.70;77.90;;;;;;5033805;28;20186;-85
2021/05/28 11:55:53;;;;;;;2.67;1.40;;;27.40;78.80;;;;;;5055023;28;20194;-84
2021/05/28 11:58:24;;;;;;;8.02;2.05;;;26.40;80.80;;;;;;5055690;28;20639;-84
2021/05/28 12:00:51;;;;;;;3.38;1.60;;;26.60;81.00;;;;;;5037405;28;20159;-86
2021/05/28 12:03:18;;;;;;;2.90;1.70;;;26.50;81.00;;;;;;5055772;28;20620;-82
2021/05/28 12:05:46;;;;;;;4.40;2.03;;;25.50;85.20;;;;;;5055424;28;20198;-83
2021/05/28 12:08:11;;;;;;;4.53;2.28;;;26.50;85.10;;;;;;5037086;28;20249;-90
2021/05/28 12:10:54;;;;;;;3.78;2.20;;;26.40;82.20;;;;;;5056824;28;20184;-88
2021/05/28 12:13:24;;;;;;;2.58;1.98;;;26.90;80.80;;;;;;5058289;28;20178;-86
2021/05/28 12:16:01;;;;;;;4.30;2.20;;;27.50;82.00;;;;;;5061679;28;20199;-89
2021/05/28 12:18:35;;;;;;;3.50;1.85;;;28.20;81.40;;;;;;5036234;28;20263;-89
2021/05/28 12:21:06;;;;;;;6.53;2.30;;;28.20;81.80;;;;;;5066783;28;20182;-88
2021/05/28 12:23:33;;;;;;;5.60;2.05;;;26.20;80.00;;;;;;5040366;28;20179;-86
2021/05/28 12:26:03;;;;;;;3.30;2.00;;;26.00;82.20;;;;;;5054769;28;20185;-87
2021/05/28 12:28:37;;;;;;;3.47;2.00;;;26.60;83.50;;;;;;5038473;28;20175;-87
2021/05/28 12:31:12;;;;;;;5.78;2.72;;;26.90;81.50;;;;;;5059504;28;20572;-87
2021/05/28 12:33:52;;;;;;;3.72;2.55;;;26.10;79.50;;;;;;5068279;28;20174;-87
2021/05/28 12:36:27;;;;;;;4.20;2.60;;;25.90;82.00;;;;;;5046926;28;20198;-84
2021/05/28 12:38:53;;;;;;;5.05;2.17;;;25.80;82.80;;;;;;5073183;28;20166;-88
2021/05/28 12:41:27;;;;;;;3.22;2.40;;;25.50;84.80;;;;;;5057045;28;20196;-87
2021/05/28 12:43:55;;;;;;;7.55;3.10;;;25.00;84.70;;;;;;5056943;28;20643;-88
2021/05/28 12:46:39;;;;;;;6.18;2.90;;;24.70;85.30;;;;;;5065087;28;20197;-88
2021/05/28 12:49:07;;;;;;;3.92;2.60;;;23.90;85.10;;;;;;5039898;28;20172;-87